createdAt,value
2017-05-14T00:00:23.488Z,70.15
2017-05-14T00:01:24.852Z,70.09
2017-05-14T00:02:26.216Z,69.96
2017-05-14T00:03:27.579Z,70.15
2017-05-14T00:04:28.947Z,70.25
2017-05-14T00:05:30.314Z,70.25
2017-05-14T00:06:31.682Z,70.15
2017-05-14T00:07:33.044Z,70.06
2017-05-14T00:08:34.404Z,69.87
2017-05-14T00:09:35.775Z,70.06
2017-05-14T00:10:37.150Z,70.06
2017-05-14T00:11:38.611Z,69.58
2017-05-14T00:12:39.979Z,69.58
2017-05-14T00:13:41.359Z,70.06
2017-05-14T00:14:42.723Z,69.77
2017-05-14T00:15:44.079Z,69.77
2017-05-14T00:16:45.445Z,69.87
2017-05-14T00:17:46.823Z,69.77
2017-05-14T00:18:48.188Z,69.77
2017-05-14T00:19:49.558Z,69.96
2017-05-14T00:20:50.927Z,69.77
2017-05-14T00:21:52.367Z,69.77
2017-05-14T00:22:53.766Z,69.87
2017-05-14T00:23:55.094Z,69.77
2017-05-14T00:24:56.463Z,70.06
2017-05-14T00:25:57.818Z,69.87
2017-05-14T00:26:59.182Z,70.15
2017-05-14T00:28:00.554Z,69.68
2017-05-14T00:29:01.927Z,70.15
2017-05-14T00:30:03.325Z,70.15
2017-05-14T00:31:04.652Z,70.25
2017-05-14T00:32:06.021Z,70.15
2017-05-14T00:33:07.385Z,70.25
2017-05-14T00:34:08.750Z,70.25
2017-05-14T00:35:10.121Z,70.25
2017-05-14T00:36:11.481Z,70.15
2017-05-14T00:37:12.855Z,70.06
2017-05-14T00:38:14.232Z,70.06
2017-05-14T00:39:15.613Z,70.83
2017-05-14T00:40:16.978Z,70.83
2017-05-14T00:41:18.340Z,70.64
2017-05-14T00:42:19.711Z,70.35
2017-05-14T00:43:21.073Z,70.73
2017-05-14T00:44:22.433Z,70.83
2017-05-14T00:45:23.801Z,70.54
2017-05-14T00:46:25.164Z,70.73
2017-05-14T00:47:26.528Z,70.73
2017-05-14T00:48:27.897Z,70.54
2017-05-14T00:49:29.264Z,70.54
2017-05-14T00:50:30.630Z,71.31
2017-05-14T00:51:31.990Z,71.21
2017-05-14T00:52:33.351Z,71.31
2017-05-14T00:53:34.716Z,71.31
2017-05-14T00:54:36.087Z,71.21
2017-05-14T00:55:37.449Z,71.59
2017-05-14T00:56:38.817Z,71.59
2017-05-14T00:57:40.177Z,71.11
2017-05-14T00:58:41.544Z,71.69
2017-05-14T00:59:42.908Z,71.50
2017-05-14T01:00:44.317Z,72.07
2017-05-14T01:01:45.678Z,71.98
2017-05-14T01:02:47.051Z,71.88
2017-05-14T01:03:48.419Z,71.78
2017-05-14T01:04:49.779Z,71.98
2017-05-14T01:05:51.144Z,71.98
2017-05-14T01:06:52.550Z,72.23
2017-05-14T01:07:53.917Z,72.27
2017-05-14T01:08:55.281Z,72.36
2017-05-14T01:09:56.654Z,72.23
2017-05-14T01:10:58.100Z,72.07
2017-05-14T01:11:59.459Z,71.94
2017-05-14T01:13:00.821Z,72.42
2017-05-14T01:14:02.187Z,72.17
2017-05-14T01:15:03.557Z,72.71
2017-05-14T01:16:04.917Z,72.99
2017-05-14T01:17:06.289Z,72.42
2017-05-14T01:18:07.648Z,72.42
2017-05-14T01:19:09.021Z,72.71
2017-05-14T01:20:10.384Z,72.80
2017-05-14T01:21:11.755Z,72.90
2017-05-14T01:22:13.116Z,72.61
2017-05-14T01:23:14.486Z,73.09
2017-05-14T01:24:15.847Z,73.28
2017-05-14T01:25:17.218Z,73.09
2017-05-14T01:26:18.578Z,72.99
2017-05-14T01:27:19.939Z,72.99
2017-05-14T01:28:21.303Z,73.28
2017-05-14T01:29:22.673Z,73.28
2017-05-14T01:30:24.037Z,72.99
2017-05-14T01:31:25.406Z,72.99
2017-05-14T01:32:26.788Z,73.95
2017-05-14T01:33:28.155Z,73.76
2017-05-14T01:34:29.514Z,73.76
2017-05-14T01:35:30.883Z,73.38
2017-05-14T01:36:32.296Z,73.38
2017-05-14T01:37:33.672Z,73.86
2017-05-14T01:38:35.062Z,73.76
2017-05-14T01:39:36.472Z,73.86
2017-05-14T01:40:37.910Z,73.91
2017-05-14T01:41:39.317Z,73.82
2017-05-14T01:42:40.747Z,74.24
2017-05-14T01:43:42.119Z,74.24
2017-05-14T01:44:43.531Z,74.72
2017-05-14T01:45:44.943Z,73.47
2017-05-14T01:46:46.343Z,74.24
2017-05-14T01:47:47.738Z,74.30
2017-05-14T01:48:49.206Z,74.33
2017-05-14T01:49:50.554Z,74.05
2017-05-14T01:50:51.931Z,74.05
2017-05-14T01:51:53.301Z,74.43
2017-05-14T01:52:54.664Z,74.15
2017-05-14T01:53:56.029Z,73.95
2017-05-14T01:54:57.394Z,73.57
2017-05-14T01:55:58.759Z,74.15
2017-05-14T01:57:00.121Z,73.86
2017-05-14T01:58:01.490Z,74.43
2017-05-14T01:59:02.915Z,74.40
2017-05-14T02:00:04.282Z,74.58
2017-05-14T02:01:05.652Z,73.91
2017-05-14T02:02:07.019Z,73.91
2017-05-14T02:03:08.378Z,74.01
2017-05-14T02:04:09.754Z,74.11
2017-05-14T02:05:11.115Z,74.30
2017-05-14T02:06:12.484Z,74.11
2017-05-14T02:07:13.847Z,74.01
2017-05-14T02:08:15.217Z,74.58
2017-05-14T02:09:16.575Z,74.01
2017-05-14T02:10:17.947Z,74.01
2017-05-14T02:11:19.306Z,74.01
2017-05-14T02:12:20.677Z,73.91
2017-05-14T02:13:22.041Z,73.82
2017-05-14T02:14:23.405Z,74.30
2017-05-14T02:15:24.769Z,73.91
2017-05-14T02:16:26.130Z,73.91
2017-05-14T02:17:27.493Z,73.91
2017-05-14T02:18:28.870Z,74.11
2017-05-14T02:19:30.234Z,74.68
2017-05-14T02:20:31.605Z,74.58
2017-05-14T02:21:32.991Z,74.58
2017-05-14T02:22:34.368Z,74.40
2017-05-14T02:23:35.735Z,74.68
2017-05-14T02:24:37.133Z,74.68
2017-05-14T02:25:38.465Z,75.07
2017-05-14T02:26:39.825Z,74.58
2017-05-14T02:27:41.199Z,74.58
2017-05-14T02:28:43.250Z,74.97
2017-05-14T02:29:44.608Z,74.87
2017-05-14T02:30:45.976Z,74.68
2017-05-14T02:31:47.341Z,74.77
2017-05-14T02:32:48.702Z,74.49
2017-05-14T02:33:50.079Z,74.49
2017-05-14T02:34:51.441Z,74.49
2017-05-14T02:35:52.806Z,74.77
2017-05-14T02:36:54.201Z,74.77
2017-05-14T02:37:55.565Z,74.87
2017-05-14T02:38:56.923Z,74.87
2017-05-14T02:39:58.305Z,74.77
2017-05-14T02:40:59.655Z,74.77
2017-05-14T02:42:01.021Z,74.87
2017-05-14T02:43:02.383Z,74.87
2017-05-14T02:44:03.749Z,74.97
2017-05-14T02:45:05.117Z,74.87
2017-05-14T02:46:06.477Z,74.77
2017-05-14T02:47:07.915Z,74.77
2017-05-14T02:48:09.280Z,74.97
2017-05-14T02:49:10.640Z,75.54
2017-05-14T02:50:12.010Z,75.31
2017-05-14T02:51:13.372Z,75.45
2017-05-14T02:52:14.741Z,75.54
2017-05-14T02:53:16.106Z,75.51
2017-05-14T02:54:17.471Z,75.64
2017-05-14T02:55:18.840Z,75.70
2017-05-14T02:56:20.197Z,75.60
2017-05-14T02:57:21.560Z,75.73
2017-05-14T02:58:22.929Z,75.79
2017-05-14T02:59:24.296Z,76.18
2017-05-14T03:00:25.659Z,76.08
2017-05-14T03:01:27.022Z,76.37
2017-05-14T03:02:28.380Z,76.08
2017-05-14T03:03:29.751Z,76.27
2017-05-14T03:04:31.121Z,76.46
2017-05-14T03:05:32.486Z,76.18
2017-05-14T03:06:33.851Z,76.37
2017-05-14T03:07:35.214Z,75.79
2017-05-14T03:08:36.583Z,75.89
2017-05-14T03:09:37.942Z,76.27
2017-05-14T03:10:39.312Z,76.56
2017-05-14T03:11:40.683Z,76.27
2017-05-14T03:12:42.052Z,76.46
2017-05-14T03:13:43.416Z,76.56
2017-05-14T03:14:44.779Z,76.46
2017-05-14T03:15:46.143Z,76.27
2017-05-14T03:16:47.511Z,76.18
2017-05-14T03:17:48.878Z,76.46
2017-05-14T03:18:50.274Z,75.98
2017-05-14T03:19:51.631Z,76.75
2017-05-14T03:20:53.003Z,76.18
2017-05-14T03:21:54.363Z,76.84
2017-05-14T03:22:55.733Z,76.37
2017-05-14T03:23:57.100Z,76.75
2017-05-14T03:24:58.472Z,76.65
2017-05-14T03:25:59.840Z,76.56
2017-05-14T03:27:01.212Z,76.56
2017-05-14T03:28:02.579Z,77.04
2017-05-14T03:29:03.942Z,77.04
2017-05-14T03:30:05.329Z,77.04
2017-05-14T03:31:06.690Z,76.37
2017-05-14T03:32:08.058Z,76.56
2017-05-14T03:33:09.422Z,76.56
2017-05-14T03:34:10.814Z,77.04
2017-05-14T03:35:12.170Z,77.04
2017-05-14T03:36:13.600Z,76.37
2017-05-14T03:37:14.970Z,77.04
2017-05-14T03:38:16.333Z,76.56
2017-05-14T03:39:17.698Z,76.46
2017-05-14T03:40:19.068Z,76.56
2017-05-14T03:41:20.447Z,76.56
2017-05-14T03:42:21.812Z,76.56
2017-05-14T03:43:23.179Z,76.56
2017-05-14T03:44:24.546Z,76.65
2017-05-14T03:45:25.911Z,76.46
2017-05-14T03:46:27.281Z,76.56
2017-05-14T03:47:28.651Z,76.37
2017-05-14T03:48:30.020Z,76.56
2017-05-14T03:49:31.382Z,76.65
2017-05-14T03:50:32.774Z,76.75
2017-05-14T03:51:34.144Z,76.56
2017-05-14T03:52:35.516Z,76.18
2017-05-14T03:53:36.882Z,76.46
2017-05-14T03:54:38.252Z,75.89
2017-05-14T03:55:39.632Z,76.08
2017-05-14T03:56:40.995Z,75.89
2017-05-14T03:57:42.364Z,75.98
2017-05-14T03:58:43.730Z,75.79
2017-05-14T03:59:45.102Z,76.46
2017-05-14T04:00:46.473Z,76.27
2017-05-14T04:01:47.842Z,76.37
2017-05-14T04:02:49.213Z,76.18
2017-05-14T04:03:50.587Z,75.89
2017-05-14T04:04:51.955Z,75.70
2017-05-14T04:05:53.327Z,75.89
2017-05-14T04:06:54.700Z,75.41
2017-05-14T04:07:56.097Z,75.89
2017-05-14T04:08:57.461Z,75.31
2017-05-14T04:09:58.846Z,75.41
2017-05-14T04:11:00.222Z,75.22
2017-05-14T04:12:01.578Z,75.51
2017-05-14T04:13:02.944Z,75.22
2017-05-14T04:14:04.319Z,75.41
2017-05-14T04:15:05.682Z,75.41
2017-05-14T04:16:07.046Z,75.31
2017-05-14T04:17:08.417Z,75.22
2017-05-14T04:18:09.781Z,75.51
2017-05-14T04:19:11.151Z,75.41
2017-05-14T04:20:12.521Z,75.22
2017-05-14T04:21:13.895Z,74.68
2017-05-14T04:22:15.912Z,74.84
2017-05-14T04:23:17.285Z,75.22
2017-05-14T04:24:18.721Z,74.97
2017-05-14T04:25:20.089Z,74.77
2017-05-14T04:26:21.464Z,74.87
2017-05-14T04:27:22.831Z,74.97
2017-05-14T04:28:24.196Z,74.68
2017-05-14T04:29:25.572Z,74.77
2017-05-14T04:30:26.938Z,74.87
2017-05-14T04:31:28.308Z,74.97
2017-05-14T04:32:29.679Z,75.07
2017-05-14T04:33:31.050Z,74.58
2017-05-14T04:34:32.418Z,74.49
2017-05-14T04:35:33.790Z,74.77
2017-05-14T04:36:35.159Z,74.58
2017-05-14T04:37:36.541Z,74.58
2017-05-14T04:38:37.910Z,74.97
2017-05-14T04:39:39.279Z,74.40
2017-05-14T04:40:40.645Z,74.58
2017-05-14T04:41:42.016Z,75.07
2017-05-14T04:42:43.386Z,74.40
2017-05-14T04:43:44.760Z,73.72
2017-05-14T04:44:46.141Z,73.91
2017-05-14T04:45:47.518Z,73.91
2017-05-14T04:46:48.883Z,74.01
2017-05-14T04:47:50.257Z,74.40
2017-05-14T04:48:51.635Z,74.11
2017-05-14T04:49:52.999Z,74.11
2017-05-14T04:50:54.421Z,74.72
2017-05-14T04:51:55.791Z,73.95
2017-05-14T04:52:57.156Z,73.95
2017-05-14T04:53:58.524Z,74.05
2017-05-14T04:54:59.891Z,73.28
2017-05-14T04:56:01.278Z,73.95
2017-05-14T04:57:02.651Z,73.47
2017-05-14T04:58:04.068Z,73.57
2017-05-14T04:59:05.400Z,73.95
2017-05-14T05:00:06.862Z,73.76
2017-05-14T05:01:08.271Z,73.47
2017-05-14T05:02:09.633Z,73.66
2017-05-14T05:03:11.009Z,73.57
2017-05-14T05:04:12.378Z,73.76
2017-05-14T05:05:13.765Z,73.66
2017-05-14T05:06:15.137Z,73.66
2017-05-14T05:07:16.546Z,73.19
2017-05-14T05:08:17.922Z,73.28
2017-05-14T05:09:19.300Z,72.99
2017-05-14T05:10:20.663Z,73.09
2017-05-14T05:11:22.044Z,73.38
2017-05-14T05:12:23.489Z,73.03
2017-05-14T05:13:24.867Z,72.71
2017-05-14T05:14:26.234Z,72.99
2017-05-14T05:15:27.601Z,72.64
2017-05-14T05:16:28.972Z,72.74
2017-05-14T05:17:30.346Z,72.55
2017-05-14T05:18:31.713Z,72.55
2017-05-14T05:19:33.083Z,72.64
2017-05-14T05:20:34.452Z,72.07
2017-05-14T05:21:35.822Z,71.98
2017-05-14T05:22:37.237Z,71.98
2017-05-14T05:23:38.561Z,71.69
2017-05-14T05:24:39.935Z,71.69
2017-05-14T05:25:41.303Z,72.07
2017-05-14T05:26:42.678Z,71.78
2017-05-14T05:27:44.055Z,71.31
2017-05-14T05:28:45.429Z,71.50
2017-05-14T05:29:46.798Z,71.40
2017-05-14T05:30:48.161Z,71.11
2017-05-14T05:31:49.530Z,71.31
2017-05-14T05:32:50.902Z,71.11
2017-05-14T05:33:52.276Z,71.31
2017-05-14T05:34:53.678Z,71.15
2017-05-14T05:35:55.048Z,71.44
2017-05-14T05:36:56.489Z,70.48
2017-05-14T05:37:57.864Z,70.57
2017-05-14T05:38:59.245Z,70.76
2017-05-14T05:40:00.620Z,70.57
2017-05-14T05:41:01.992Z,70.76
2017-05-14T05:42:03.364Z,70.76
2017-05-14T05:43:04.732Z,70.09
2017-05-14T05:44:06.102Z,70.09
2017-05-14T05:45:07.469Z,70.19
2017-05-14T05:46:08.845Z,69.81
2017-05-14T05:47:10.219Z,69.81
2017-05-14T05:48:11.584Z,70.09
2017-05-14T05:49:12.959Z,69.71
2017-05-14T05:50:14.331Z,70.00
2017-05-14T05:51:15.711Z,69.65
2017-05-14T05:52:17.080Z,68.95
2017-05-14T05:53:18.454Z,68.79
2017-05-14T05:54:19.821Z,69.07
2017-05-14T05:55:21.222Z,69.17
2017-05-14T05:56:22.597Z,69.07
2017-05-14T05:57:23.970Z,68.88
2017-05-14T05:58:25.370Z,68.30
2017-05-14T05:59:26.743Z,68.40
2017-05-14T06:00:28.679Z,68.12
2017-05-14T06:01:30.000Z,68.50
2017-05-14T06:02:31.373Z,68.21
2017-05-14T06:03:32.738Z,68.12
2017-05-14T06:04:34.719Z,68.50
2017-05-14T06:05:36.084Z,67.44
2017-05-14T06:06:37.451Z,67.35
2017-05-14T06:07:38.864Z,67.63
2017-05-14T06:08:40.233Z,67.35
2017-05-14T06:09:41.612Z,67.73
2017-05-14T06:10:42.991Z,67.83
2017-05-14T06:11:44.357Z,67.83
2017-05-14T06:12:45.824Z,67.16
2017-05-14T06:13:47.185Z,67.16
2017-05-14T06:14:48.559Z,67.19
2017-05-14T06:15:49.922Z,67.00
2017-05-14T06:16:51.294Z,67.09
2017-05-14T06:17:52.670Z,66.71
2017-05-14T06:18:54.039Z,66.71
2017-05-14T06:19:55.400Z,66.52
2017-05-14T06:20:56.768Z,66.80
2017-05-14T06:21:58.142Z,66.80
2017-05-14T06:22:59.548Z,66.71
2017-05-14T06:24:00.881Z,66.52
2017-05-14T06:25:02.251Z,66.61
2017-05-14T06:26:03.654Z,65.84
2017-05-14T06:27:05.021Z,65.84
2017-05-14T06:28:06.395Z,65.84
2017-05-14T06:29:07.756Z,66.13
2017-05-14T06:30:09.129Z,65.97
2017-05-14T06:31:10.500Z,65.78
2017-05-14T06:32:11.915Z,65.88
2017-05-14T06:33:13.282Z,65.59
2017-05-14T06:34:14.656Z,65.78
2017-05-14T06:35:16.025Z,65.59
2017-05-14T06:36:17.398Z,65.49
2017-05-14T06:37:18.796Z,65.20
2017-05-14T06:38:20.169Z,65.20
2017-05-14T06:39:21.541Z,65.20
2017-05-14T06:40:22.913Z,65.20
2017-05-14T06:41:24.278Z,65.20
2017-05-14T06:42:25.650Z,65.20
2017-05-14T06:43:27.022Z,64.92
2017-05-14T06:44:28.389Z,64.85
2017-05-14T06:45:29.757Z,65.14
2017-05-14T06:46:31.135Z,64.47
2017-05-14T06:47:32.510Z,64.18
2017-05-14T06:48:33.968Z,63.51
2017-05-14T06:49:35.337Z,63.51
2017-05-14T06:50:36.710Z,63.41
2017-05-14T06:51:38.081Z,63.22
2017-05-14T06:52:39.448Z,62.74
2017-05-14T06:53:40.860Z,62.84
2017-05-14T06:54:42.237Z,62.64
2017-05-14T06:55:43.613Z,62.93
2017-05-14T06:56:44.994Z,62.84
2017-05-14T06:57:46.369Z,62.84
2017-05-14T06:58:47.748Z,62.16
2017-05-14T06:59:49.123Z,62.26
2017-05-14T07:00:50.495Z,62.45
2017-05-14T07:01:52.819Z,62.45
2017-05-14T07:02:54.193Z,62.07
2017-05-14T07:03:55.564Z,62.00
2017-05-14T07:04:56.937Z,61.61
2017-05-14T07:05:58.315Z,62.48
2017-05-14T07:06:59.688Z,62.00
2017-05-14T07:08:01.059Z,61.91
2017-05-14T07:09:02.435Z,61.91
2017-05-14T07:10:03.804Z,61.43
2017-05-14T07:11:05.173Z,61.23
2017-05-14T07:12:06.548Z,61.04
2017-05-14T07:13:07.926Z,61.04
2017-05-14T07:14:09.302Z,60.94
2017-05-14T07:15:10.904Z,61.04
2017-05-14T07:16:12.268Z,61.52
2017-05-14T07:17:13.644Z,60.27
2017-05-14T07:18:15.011Z,60.27
2017-05-14T07:19:16.391Z,60.59
2017-05-14T07:20:17.764Z,60.69
2017-05-14T07:21:19.157Z,60.49
2017-05-14T07:22:20.519Z,60.59
2017-05-14T07:23:21.915Z,60.59
2017-05-14T07:24:23.282Z,60.21
2017-05-14T07:25:24.661Z,60.39
2017-05-14T07:26:26.035Z,59.53
2017-05-14T07:27:27.411Z,59.53
2017-05-14T07:28:29.299Z,59.34
2017-05-14T07:29:30.674Z,58.98
2017-05-14T07:30:32.051Z,59.24
2017-05-14T07:31:33.420Z,59.63
2017-05-14T07:32:34.847Z,59.53
2017-05-14T07:33:36.219Z,59.27
2017-05-14T07:34:37.592Z,59.34
2017-05-14T07:35:39.036Z,59.27
2017-05-14T07:36:40.409Z,58.89
2017-05-14T07:37:41.780Z,59.17
2017-05-14T07:38:43.155Z,58.70
2017-05-14T07:39:44.525Z,58.50
2017-05-14T07:40:45.888Z,58.50
2017-05-14T07:41:47.261Z,58.70
2017-05-14T07:42:48.637Z,58.60
2017-05-14T07:43:50.010Z,58.50
2017-05-14T07:44:51.389Z,58.70
2017-05-14T07:45:52.761Z,58.50
2017-05-14T07:46:54.152Z,57.92
2017-05-14T07:47:55.515Z,58.60
2017-05-14T07:48:56.933Z,58.31
2017-05-14T07:49:58.304Z,58.53
2017-05-14T07:50:59.677Z,57.92
2017-05-14T07:52:01.533Z,58.24
2017-05-14T07:53:02.909Z,58.31
2017-05-14T07:54:04.419Z,58.22
2017-05-14T07:55:05.825Z,58.34
2017-05-14T07:56:07.190Z,58.53
2017-05-14T07:57:08.584Z,58.24
2017-05-14T07:58:09.954Z,58.05
2017-05-14T07:59:11.371Z,58.63
2017-05-14T08:00:12.736Z,58.24
2017-05-14T08:01:14.109Z,57.76
2017-05-14T08:02:16.079Z,58.15
2017-05-14T08:03:17.449Z,57.95
2017-05-14T08:04:18.822Z,57.76
2017-05-14T08:05:20.327Z,57.86
2017-05-14T08:06:21.698Z,58.15
2017-05-14T08:07:23.070Z,57.86
2017-05-14T08:08:24.445Z,58.05
2017-05-14T08:09:25.816Z,57.86
2017-05-14T08:10:27.188Z,58.56
2017-05-14T08:11:28.559Z,58.34
2017-05-14T08:12:29.932Z,58.65
2017-05-14T08:13:31.307Z,58.37
2017-05-14T08:14:32.689Z,58.27
2017-05-14T08:15:34.073Z,58.08
2017-05-14T08:16:35.442Z,57.79
2017-05-14T08:17:36.814Z,58.17
2017-05-14T08:18:38.189Z,58.37
2017-05-14T08:19:39.565Z,58.27
2017-05-14T08:20:40.952Z,57.89
2017-05-14T08:21:42.325Z,58.37
2017-05-14T08:22:43.705Z,58.37
2017-05-14T08:23:45.104Z,58.27
2017-05-14T08:24:46.484Z,58.47
2017-05-14T08:25:47.869Z,58.27
2017-05-14T08:26:49.234Z,58.27
2017-05-14T08:27:50.610Z,57.98
2017-05-14T08:28:51.978Z,58.17
2017-05-14T08:29:53.354Z,57.89
2017-05-14T08:30:54.722Z,57.79
2017-05-14T08:31:56.764Z,57.79
2017-05-14T08:32:58.139Z,57.31
2017-05-14T08:33:59.528Z,56.92
2017-05-14T08:35:00.895Z,56.76
2017-05-14T08:36:02.271Z,57.14
2017-05-14T08:37:03.642Z,57.24
2017-05-14T08:38:05.026Z,57.24
2017-05-14T08:39:06.402Z,57.24
2017-05-14T08:40:07.786Z,57.40
2017-05-14T08:41:09.167Z,57.79
2017-05-14T08:42:10.547Z,57.62
2017-05-14T08:43:11.927Z,57.92
2017-05-14T08:44:13.298Z,57.82
2017-05-14T08:45:14.669Z,57.43
2017-05-14T08:46:16.045Z,57.24
2017-05-14T08:47:17.413Z,57.43
2017-05-14T08:48:18.797Z,57.72
2017-05-14T08:49:20.179Z,57.72
2017-05-14T08:50:21.554Z,57.24
2017-05-14T08:51:22.934Z,56.47
2017-05-14T08:52:24.324Z,57.24
2017-05-14T08:53:25.701Z,57.14
2017-05-14T08:54:27.076Z,56.66
2017-05-14T08:55:28.495Z,57.24
2017-05-14T08:56:29.897Z,56.79
2017-05-14T08:57:31.265Z,56.88
2017-05-14T08:58:32.711Z,56.69
2017-05-14T08:59:34.079Z,56.49
2017-05-14T09:00:35.506Z,56.59
2017-05-14T09:01:36.879Z,56.40
2017-05-14T09:02:38.259Z,56.30
2017-05-14T09:03:39.635Z,56.59
2017-05-14T09:04:41.011Z,56.11
2017-05-14T09:05:42.402Z,56.21
2017-05-14T09:06:43.776Z,56.27
2017-05-14T09:07:45.799Z,56.40
2017-05-14T09:08:47.165Z,56.49
2017-05-14T09:09:48.546Z,56.21
2017-05-14T09:10:49.965Z,56.24
2017-05-14T09:11:51.345Z,55.46
2017-05-14T09:12:52.714Z,55.76
2017-05-14T09:13:54.095Z,55.76
2017-05-14T09:14:56.082Z,56.21
2017-05-14T09:15:57.462Z,56.76
2017-05-14T09:16:58.836Z,57.07
2017-05-14T09:18:00.208Z,56.59
2017-05-14T09:19:01.579Z,56.01
2017-05-14T09:20:03.089Z,56.30
2017-05-14T09:21:04.484Z,56.24
2017-05-14T09:22:05.854Z,55.56
2017-05-14T09:23:07.221Z,55.18
2017-05-14T09:24:08.632Z,54.88
2017-05-14T09:25:10.007Z,54.98
2017-05-14T09:26:11.383Z,55.08
2017-05-14T09:27:12.759Z,55.34
2017-05-14T09:28:14.144Z,54.98
2017-05-14T09:29:15.517Z,54.98
2017-05-14T09:30:16.895Z,54.98
2017-05-14T09:31:18.268Z,54.98
2017-05-14T09:32:19.735Z,54.40
2017-05-14T09:33:21.127Z,54.43
2017-05-14T09:34:22.521Z,54.14
2017-05-14T09:35:23.887Z,54.05
2017-05-14T09:36:25.266Z,53.66
2017-05-14T09:37:26.652Z,54.11
2017-05-14T09:38:28.098Z,54.31
2017-05-14T09:39:29.470Z,54.28
2017-05-14T09:40:30.842Z,55.05
2017-05-14T09:41:32.218Z,54.11
2017-05-14T09:42:33.609Z,54.98
2017-05-14T09:43:34.983Z,54.31
2017-05-14T09:44:36.358Z,55.08
2017-05-14T09:45:37.733Z,54.76
2017-05-14T09:46:39.110Z,55.08
2017-05-14T09:47:40.489Z,54.11
2017-05-14T09:48:41.908Z,54.02
2017-05-14T09:49:43.236Z,54.31
2017-05-14T09:50:44.620Z,53.53
2017-05-14T09:51:46.015Z,53.73
2017-05-14T09:52:47.382Z,54.09
2017-05-14T09:53:48.767Z,53.83
2017-05-14T09:54:50.136Z,53.25
2017-05-14T09:55:51.504Z,53.34
2017-05-14T09:56:52.888Z,53.53
2017-05-14T09:57:54.321Z,52.57
2017-05-14T09:58:55.697Z,53.25
2017-05-14T09:59:57.072Z,53.51
2017-05-14T10:00:58.450Z,53.15
2017-05-14T10:01:59.835Z,53.34
2017-05-14T10:03:01.207Z,53.44
2017-05-14T10:04:02.586Z,53.53
2017-05-14T10:05:03.953Z,53.25
2017-05-14T10:06:05.328Z,52.95
2017-05-14T10:07:06.699Z,51.92
2017-05-14T10:08:08.072Z,51.82
2017-05-14T10:09:09.454Z,51.73
2017-05-14T10:10:10.822Z,51.92
2017-05-14T10:11:12.240Z,51.73
2017-05-14T10:12:13.615Z,51.63
2017-05-14T10:13:14.980Z,51.05
2017-05-14T10:14:16.357Z,50.67
2017-05-14T10:15:17.732Z,50.86
2017-05-14T10:16:19.103Z,50.86
2017-05-14T10:17:20.473Z,50.28
2017-05-14T10:18:21.853Z,50.57
2017-05-14T10:19:23.228Z,50.28
2017-05-14T10:20:24.602Z,51.44
2017-05-14T10:21:25.978Z,50.76
2017-05-14T10:22:27.368Z,50.79
2017-05-14T10:23:28.726Z,50.21
2017-05-14T10:24:30.093Z,51.27
2017-05-14T10:25:31.466Z,51.37
2017-05-14T10:26:32.842Z,50.79
2017-05-14T10:27:34.229Z,51.07
2017-05-14T10:28:35.649Z,51.05
2017-05-14T10:29:37.046Z,51.34
2017-05-14T10:30:38.433Z,51.73
2017-05-14T10:31:39.805Z,52.21
2017-05-14T10:32:41.171Z,52.21
2017-05-14T10:33:42.543Z,52.40
2017-05-14T10:34:44.147Z,52.47
2017-05-14T10:35:46.501Z,52.59
2017-05-14T10:36:47.870Z,51.63
2017-05-14T10:37:49.244Z,51.07
2017-05-14T10:38:50.615Z,50.89
2017-05-14T10:39:51.978Z,50.59
2017-05-14T10:40:53.349Z,50.31
2017-05-14T10:41:54.739Z,50.43
2017-05-14T10:42:56.159Z,49.92
2017-05-14T10:43:57.533Z,50.31
2017-05-14T10:44:58.903Z,49.85
2017-05-14T10:46:00.292Z,49.82
2017-05-14T10:47:01.661Z,50.21
2017-05-14T10:48:03.032Z,50.59
2017-05-14T10:49:04.406Z,50.62
2017-05-14T10:50:05.783Z,49.85
2017-05-14T10:51:07.162Z,49.75
2017-05-14T10:52:08.532Z,49.85
2017-05-14T10:53:09.995Z,49.65
2017-05-14T10:54:11.371Z,49.65
2017-05-14T10:55:12.745Z,50.04
2017-05-14T10:56:14.118Z,49.65
2017-05-14T10:57:15.493Z,49.75
2017-05-14T10:58:16.871Z,50.33
2017-05-14T10:59:18.242Z,49.95
2017-05-14T11:00:19.624Z,49.27
2017-05-14T11:01:21.001Z,49.27
2017-05-14T11:02:22.403Z,48.88
2017-05-14T11:03:23.781Z,48.49
2017-05-14T11:04:25.151Z,48.03
2017-05-14T11:05:26.528Z,47.81
2017-05-14T11:06:27.909Z,47.94
2017-05-14T11:07:29.284Z,47.84
2017-05-14T11:08:30.655Z,48.03
2017-05-14T11:09:32.025Z,47.65
2017-05-14T11:10:33.409Z,47.16
2017-05-14T11:11:34.792Z,47.81
2017-05-14T11:12:36.173Z,47.91
2017-05-14T11:13:37.545Z,48.11
2017-05-14T11:14:38.920Z,47.94
2017-05-14T11:15:40.287Z,47.84
2017-05-14T11:16:41.687Z,47.55
2017-05-14T11:17:43.062Z,47.65
2017-05-14T11:18:44.436Z,46.97
2017-05-14T11:19:45.819Z,46.00
2017-05-14T11:20:47.198Z,45.91
2017-05-14T11:21:48.583Z,46.22
2017-05-14T11:22:49.971Z,45.93
2017-05-14T11:23:51.411Z,45.83
2017-05-14T11:24:52.794Z,46.12
2017-05-14T11:25:54.159Z,45.93
2017-05-14T11:26:55.539Z,45.93
2017-05-14T11:27:57.791Z,46.03
2017-05-14T11:28:59.160Z,45.64
2017-05-14T11:30:00.586Z,46.03
2017-05-14T11:31:02.017Z,45.64
2017-05-14T11:32:03.396Z,45.66
2017-05-14T11:33:04.868Z,45.08
2017-05-14T11:34:06.245Z,44.89
2017-05-14T11:35:07.627Z,44.98
2017-05-14T11:36:09.000Z,45.18
2017-05-14T11:37:11.314Z,45.06
2017-05-14T11:38:12.740Z,45.45
2017-05-14T11:39:14.145Z,45.35
2017-05-14T11:40:15.556Z,45.64
2017-05-14T11:41:16.926Z,46.03
2017-05-14T11:42:18.306Z,45.93
2017-05-14T11:43:19.705Z,46.03
2017-05-14T11:44:21.093Z,46.12
2017-05-14T11:45:22.462Z,46.03
2017-05-14T11:46:23.842Z,46.42
2017-05-14T11:47:25.218Z,46.20
2017-05-14T11:48:26.592Z,46.49
2017-05-14T11:49:28.017Z,46.22
2017-05-14T11:50:29.393Z,46.39
2017-05-14T11:51:30.777Z,46.78
2017-05-14T11:52:32.154Z,46.58
2017-05-14T11:53:33.559Z,46.78
2017-05-14T11:54:34.988Z,46.78
2017-05-14T11:55:36.362Z,46.80
2017-05-14T11:56:37.732Z,47.07
2017-05-14T11:57:39.109Z,46.88
2017-05-14T11:58:40.480Z,46.68
2017-05-14T11:59:41.862Z,46.49
2017-05-14T12:00:43.230Z,46.70
2017-05-14T12:01:44.611Z,46.70
2017-05-14T12:02:45.981Z,46.80
2017-05-14T12:03:47.360Z,47.26
2017-05-14T12:04:48.741Z,48.32
2017-05-14T12:05:50.115Z,49.97
2017-05-14T12:06:51.489Z,50.93
2017-05-14T12:07:52.939Z,51.61
2017-05-14T12:08:54.310Z,52.89
2017-05-14T12:09:55.687Z,52.70
2017-05-14T12:10:57.065Z,52.80
2017-05-14T12:11:58.452Z,52.51
2017-05-14T12:12:59.824Z,52.87
2017-05-14T12:14:01.213Z,52.89
2017-05-14T12:15:02.590Z,52.34
2017-05-14T12:16:03.965Z,50.18
2017-05-14T12:17:05.393Z,48.66
2017-05-14T12:18:06.767Z,47.99
2017-05-14T12:19:08.144Z,47.69
2017-05-14T12:20:09.587Z,47.89
2017-05-14T12:21:10.967Z,46.92
2017-05-14T12:22:12.346Z,47.67
2017-05-14T12:23:13.723Z,48.06
2017-05-14T12:24:15.097Z,47.89
2017-05-14T12:25:16.463Z,46.44
2017-05-14T12:26:17.892Z,46.73
2017-05-14T12:27:19.265Z,46.90
2017-05-14T12:28:20.642Z,47.02
2017-05-14T12:29:22.015Z,46.92
2017-05-14T12:30:23.400Z,47.19
2017-05-14T12:31:24.788Z,47.96
2017-05-14T12:32:26.156Z,47.28
2017-05-14T12:33:27.534Z,47.96
2017-05-14T12:34:28.902Z,48.03
2017-05-14T12:35:30.284Z,48.71
2017-05-14T12:36:31.663Z,48.35
2017-05-14T12:37:33.041Z,48.16
2017-05-14T12:38:34.548Z,48.25
2017-05-14T12:39:35.921Z,49.12
2017-05-14T12:40:37.289Z,49.90
2017-05-14T12:41:38.621Z,51.54
2017-05-14T12:42:39.997Z,51.73
2017-05-14T12:43:41.377Z,51.71
2017-05-14T12:44:42.756Z,52.09
2017-05-14T12:45:44.137Z,51.90
2017-05-14T12:46:45.558Z,51.90
2017-05-14T12:47:46.883Z,52.39
2017-05-14T12:48:48.264Z,51.90
2017-05-14T12:49:49.631Z,52.00
2017-05-14T12:50:51.003Z,52.09
2017-05-14T12:51:52.382Z,51.23
2017-05-14T12:52:53.769Z,51.81
2017-05-14T12:53:55.139Z,50.57
2017-05-14T12:54:56.514Z,50.67
2017-05-14T12:55:57.891Z,50.48
2017-05-14T12:56:59.264Z,50.67
2017-05-14T12:58:00.675Z,49.70
2017-05-14T12:59:02.382Z,50.18
2017-05-14T13:00:03.751Z,49.51
2017-05-14T13:01:05.123Z,49.41
2017-05-14T13:02:06.492Z,49.24
2017-05-14T13:03:07.873Z,48.66
2017-05-14T13:04:09.248Z,48.37
2017-05-14T13:05:10.649Z,49.22
2017-05-14T13:06:12.048Z,49.51
2017-05-14T13:07:13.434Z,50.09
2017-05-14T13:08:14.903Z,50.02
2017-05-14T13:09:16.284Z,50.60
2017-05-14T13:10:17.659Z,50.31